createdAt,value
2022-09-01T00:01:49.790Z,95245.94
2022-09-01T00:04:22.329Z,95250.75
2022-09-01T00:06:50.210Z,95232.47
2022-09-01T00:09:19.780Z,95244.53
2022-09-01T00:11:52.441Z,95232.47
2022-09-01T00:14:30.421Z,95248.03
2022-09-01T00:17:05.949Z,95256.13
2022-09-01T00:19:34.220Z,95247.75
2022-09-01T00:22:02.570Z,95246.44
2022-09-01T00:24:30.830Z,95252.13
2022-09-01T00:26:58.137Z,95245.69
2022-09-01T00:29:26.770Z,95248.63
2022-09-01T00:31:54.679Z,95239.53
2022-09-01T00:34:22.490Z,95243.34
2022-09-01T00:36:50.588Z,95236.91
2022-09-01T00:39:18.242Z,95242.09
2022-09-01T00:41:47.298Z,95236.41
2022-09-01T00:44:19.230Z,95238.59
2022-09-01T00:46:55.317Z,95226.00
2022-09-01T00:49:35.186Z,95228.94
2022-09-01T00:52:26.280Z,95237.91
2022-09-01T00:55:02.070Z,95236.50
2022-09-01T00:57:29.939Z,95229.81
2022-09-01T01:00:02.380Z,95227.66
2022-09-01T01:02:29.874Z,95240.38
2022-09-01T01:04:59.697Z,95242.03
2022-09-01T01:07:28.621Z,95228.38
2022-09-01T01:09:56.531Z,95235.34
2022-09-01T01:12:23.947Z,95241.63
2022-09-01T01:14:51.730Z,95237.72
2022-09-01T01:17:22.190Z,95235.63
2022-09-01T01:20:15.739Z,95236.03
2022-09-01T01:23:10.311Z,95238.81
2022-09-01T01:25:42.171Z,95234.06
2022-09-01T01:28:31.371Z,95224.47
2022-09-01T01:31:06.359Z,95238.78
2022-09-01T01:33:42.896Z,95232.34
2022-09-01T01:36:16.690Z,95235.31
2022-09-01T01:38:48.360Z,95236.94
2022-09-01T01:41:19.937Z,95217.03
2022-09-01T01:43:48.534Z,95218.38
2022-09-01T01:46:19.750Z,95230.50
2022-09-01T01:48:48.920Z,95220.28
2022-09-01T01:51:21.390Z,95228.34
2022-09-01T01:53:52.942Z,95232.34
2022-09-01T01:56:22.941Z,95226.16
2022-09-01T01:58:55.425Z,95212.22
2022-09-01T02:01:25.535Z,95216.22
2022-09-01T02:03:54.961Z,95221.06
2022-09-01T02:06:25.880Z,95222.63
2022-09-01T02:08:58.499Z,95210.34
2022-09-01T02:11:26.629Z,95227.88
2022-09-01T02:13:59.159Z,95224.13
2022-09-01T02:16:33.105Z,95222.03
2022-09-01T02:19:03.961Z,95213.19
2022-09-01T02:21:31.736Z,95205.97
2022-09-01T02:24:02.519Z,95218.91
2022-09-01T02:26:35.320Z,95220.25
2022-09-01T02:29:07.349Z,95219.16
2022-09-01T02:31:40.919Z,95215.16
2022-09-01T02:34:14.220Z,95229.16
2022-09-01T02:36:47.742Z,95212.41
2022-09-01T02:39:29.750Z,95218.31
2022-09-01T02:41:57.269Z,95214.59
2022-09-01T02:44:31.364Z,95210.81
2022-09-01T02:47:01.089Z,95218.63
2022-09-01T02:49:30.142Z,95189.66
2022-09-01T02:52:02.080Z,95217.28
2022-09-01T02:54:33.070Z,95215.94
2022-09-01T02:57:01.229Z,95217.31
2022-09-01T02:59:30.711Z,95197.69
2022-09-01T03:02:01.481Z,95218.91
2022-09-01T03:04:35.268Z,95202.59
2022-09-01T03:07:05.691Z,95217.66
2022-09-01T03:09:33.110Z,95214.16
2022-09-01T03:12:00.479Z,95203.97
2022-09-01T03:14:30.201Z,95215.28
2022-09-01T03:16:57.916Z,95207.28
2022-09-01T03:19:25.449Z,95205.13
2022-09-01T03:21:53.059Z,95216.63
2022-09-01T03:24:24.801Z,95203.75
2022-09-01T03:26:53.229Z,95217.22
2022-09-01T03:29:21.202Z,95217.44
2022-09-01T03:31:49.493Z,95209.34
2022-09-01T03:34:19.497Z,95198.94
2022-09-01T03:36:51.480Z,95218.84
2022-09-01T03:39:25.869Z,95216.41
2022-09-01T03:41:54.060Z,95222.91
2022-09-01T03:44:21.522Z,95222.38
2022-09-01T03:46:49.010Z,95213.22
2022-09-01T03:49:17.188Z,95204.63
2022-09-01T03:51:45.412Z,95208.59
2022-09-01T03:54:13.703Z,95214.28
2022-09-01T03:56:41.951Z,95205.69
2022-09-01T03:59:17.466Z,95207.84
2022-09-01T04:01:47.150Z,95204.09
2022-09-01T04:04:15.710Z,95193.41
2022-09-01T04:06:47.069Z,95204.97
2022-09-01T04:09:15.609Z,95199.06
2022-09-01T04:11:46.493Z,95208.50
2022-09-01T04:14:16.160Z,95217.94
2022-09-01T04:17:02.932Z,95198.84
2022-09-01T04:19:37.057Z,95206.91
2022-09-01T04:22:08.262Z,95193.47
2022-09-01T04:24:46.148Z,95220.09
2022-09-01T04:27:18.431Z,95215.53
2022-09-01T04:29:47.219Z,95227.38
2022-09-01T04:32:16.110Z,95214.50
2022-09-01T04:34:49.804Z,95227.41
2022-09-01T04:37:22.214Z,95234.13
2022-09-01T04:39:57.664Z,95239.78
2022-09-01T04:42:29.683Z,95231.19
2022-09-01T04:45:07.175Z,95218.25
2022-09-01T04:47:45.689Z,95229.03
2022-09-01T04:50:18.156Z,95233.59
2022-09-01T04:53:06.347Z,95208.06
2022-09-01T04:55:44.709Z,95232.78
2022-09-01T04:58:18.846Z,95225.78
2022-09-01T05:00:48.624Z,95225.25
2022-09-01T05:03:21.740Z,95210.75
2022-09-01T05:06:01.471Z,95221.78
2022-09-01T05:08:32.659Z,95205.13
2022-09-01T05:11:06.479Z,95222.56
2022-09-01T05:13:45.640Z,95221.16
2022-09-01T05:16:25.243Z,95208.00
2022-09-01T05:18:57.326Z,95210.66
2022-09-01T05:21:30.120Z,95204.13
2022-09-01T05:24:05.259Z,95209.72
2022-09-01T05:26:34.949Z,95209.94
2022-09-01T05:29:11.090Z,95209.84
2022-09-01T05:31:41.458Z,95205.75
2022-09-01T05:34:15.442Z,95212.88
2022-09-01T05:36:50.781Z,95208.47
2022-09-01T05:39:18.442Z,95219.19
2022-09-01T05:41:46.169Z,95216.19
2022-09-01T05:44:14.422Z,95213.66
2022-09-01T05:46:44.803Z,95225.16
2022-09-01T05:49:16.414Z,95222.66
2022-09-01T05:51:53.341Z,95214.44
2022-09-01T05:54:25.788Z,95210.31
2022-09-01T05:57:12.678Z,95231.94
2022-09-01T05:59:54.200Z,95222.63
2022-09-01T06:02:27.594Z,95218.13
2022-09-01T06:04:57.648Z,95227.66
2022-09-01T06:07:31.070Z,95230.19
2022-09-01T06:10:01.342Z,95239.09
2022-09-01T06:12:29.209Z,95240.38
2022-09-01T06:14:58.215Z,95227.72
2022-09-01T06:17:29.221Z,95228.28
2022-09-01T06:20:01.071Z,95228.59
2022-09-01T06:22:29.377Z,95238.53
2022-09-01T06:25:03.274Z,95234.91
2022-09-01T06:27:38.980Z,95228.28
2022-09-01T06:30:15.283Z,95225.06
2022-09-01T06:32:52.461Z,95216.75
2022-09-01T06:35:21.060Z,95232.09
2022-09-01T06:37:48.771Z,95219.53
2022-09-01T06:40:35.646Z,95216.88
2022-09-01T06:43:08.179Z,95215.03
2022-09-01T06:45:50.018Z,95217.09
2022-09-01T06:48:18.579Z,95211.63
2022-09-01T06:53:35.397Z,95213.28
2022-09-01T06:56:06.617Z,95206.53
2022-09-01T06:58:36.403Z,95207.06
2022-09-01T07:01:15.825Z,95200.91
2022-09-01T07:03:45.231Z,95198.34
2022-09-01T07:12:35.498Z,95185.88
2022-09-01T07:17:55.739Z,95192.66
2022-09-01T07:20:27.618Z,95192.97
2022-09-01T07:23:06.417Z,95186.06
2022-09-01T07:26:06.446Z,95190.47
2022-09-01T07:28:40.960Z,95192.44
2022-09-01T07:39:49.819Z,95178.41
2022-09-01T07:42:58.904Z,95183.50
2022-09-01T07:45:59.720Z,95188.19
2022-09-01T07:49:01.127Z,95184.03
2022-09-01T07:51:38.105Z,95186.03
2022-09-01T07:54:08.062Z,95185.13
2022-09-01T07:56:40.125Z,95185.34
2022-09-01T07:59:15.076Z,95180.16
2022-09-01T08:02:17.818Z,95186.59
2022-09-01T08:04:46.670Z,95192.56
2022-09-01T08:07:16.066Z,95184.59
2022-09-01T08:09:44.627Z,95180.91
2022-09-01T08:12:14.064Z,95185.91
2022-09-01T08:17:57.576Z,95181.41
2022-09-01T08:20:27.781Z,95196.06
2022-09-01T08:23:20.991Z,95190.00
2022-09-01T08:25:48.742Z,95204.75
2022-09-01T08:28:26.280Z,95202.66
2022-09-01T08:30:56.560Z,95207.31
2022-09-01T08:33:26.672Z,95193.19
2022-09-01T08:35:55.578Z,95185.13
2022-09-01T08:38:23.732Z,95203.28
2022-09-01T08:40:57.582Z,95200.22
2022-09-01T08:43:47.960Z,95202.38
2022-09-01T08:46:35.194Z,95205.53
2022-09-01T08:49:25.369Z,95209.41
2022-09-01T08:52:28.512Z,95206.56
2022-09-01T08:55:26.155Z,95199.00
2022-09-01T08:57:59.883Z,95209.13
2022-09-01T09:00:39.811Z,95197.28
2022-09-01T09:03:45.601Z,95207.56
2022-09-01T09:06:26.142Z,95207.78
2022-09-01T09:09:06.440Z,95196.75
2022-09-01T09:11:46.200Z,95205.81
2022-09-01T09:14:37.780Z,95197.84
2022-09-01T09:17:06.080Z,95199.13
2022-09-01T09:19:42.748Z,95193.72
2022-09-01T09:22:16.110Z,95203.38
2022-09-01T09:24:51.224Z,95209.63
2022-09-01T09:27:31.060Z,95204.50
2022-09-01T09:30:15.217Z,95204.34
2022-09-01T09:35:45.960Z,95216.91
2022-09-01T09:38:21.025Z,95215.72
2022-09-01T09:41:17.022Z,95218.78
2022-09-01T09:43:48.511Z,95211.97
2022-09-01T09:46:39.125Z,95212.31
2022-09-01T09:49:35.189Z,95188.97
2022-09-01T09:52:10.377Z,95209.47
2022-09-01T09:54:41.830Z,95217.50
2022-09-01T09:57:14.068Z,95214.63
2022-09-01T09:59:57.867Z,95219.91
2022-09-01T10:02:36.390Z,95213.72
2022-09-01T10:05:30.122Z,95211.50
2022-09-01T10:07:58.758Z,95210.13
2022-09-01T10:10:30.960Z,95203.38
2022-09-01T10:12:59.612Z,95211.53
2022-09-01T10:15:30.984Z,95201.25
2022-09-01T10:18:20.388Z,95212.59
2022-09-01T10:20:57.780Z,95209.50
2022-09-01T10:23:30.974Z,95207.22
2022-09-01T10:26:36.189Z,95207.63
2022-09-01T10:29:20.500Z,95207.69
2022-09-01T10:31:48.208Z,95211.84
2022-09-01T10:34:19.865Z,95212.28
2022-09-01T10:36:55.026Z,95208.78
2022-09-01T10:39:30.494Z,95217.44
2022-09-01T10:42:07.689Z,95206.03
2022-09-01T10:44:39.130Z,95205.72
2022-09-01T10:47:24.882Z,95211.81
2022-09-01T10:49:52.514Z,95206.59
2022-09-01T10:52:43.248Z,95210.41
2022-09-01T10:55:25.040Z,95204.19
2022-09-01T11:01:11.537Z,95202.69
2022-09-01T11:03:47.870Z,95198.31
2022-09-01T11:09:43.409Z,95195.16
2022-09-01T11:12:29.443Z,95196.53
2022-09-01T11:15:01.223Z,95205.31
2022-09-01T11:17:31.235Z,95203.13
2022-09-01T11:20:08.896Z,95195.41
2022-09-01T11:22:42.161Z,95202.66
2022-09-01T11:25:41.518Z,95203.69
2022-09-01T11:28:15.712Z,95200.97
2022-09-01T11:30:55.538Z,95207.47
2022-09-01T11:33:53.401Z,95210.63
2022-09-01T11:36:25.750Z,95201.94
2022-09-01T11:39:03.126Z,95203.22
2022-09-01T11:41:42.976Z,95198.09
2022-09-01T11:44:42.619Z,95200.03
2022-09-01T11:47:21.419Z,95200.03
2022-09-01T11:49:53.456Z,95201.63
2022-09-01T11:52:23.512Z,95199.44
2022-09-01T11:54:51.630Z,95194.22
2022-09-01T11:57:25.889Z,95193.56
2022-09-01T11:59:54.440Z,95197.31
2022-09-01T12:02:28.026Z,95198.22
2022-09-01T12:04:56.810Z,95184.09
2022-09-01T12:07:38.099Z,95178.16
2022-09-01T12:10:35.619Z,95175.44
2022-09-01T12:13:05.750Z,95158.25
2022-09-01T12:15:36.662Z,95163.28
2022-09-01T12:18:22.980Z,95162.53
2022-09-01T12:20:57.090Z,95172.44
2022-09-01T12:23:29.669Z,95176.47
2022-09-01T12:26:13.390Z,95171.97
2022-09-01T12:28:44.272Z,95177.34
2022-09-01T12:31:25.792Z,95174.78
2022-09-01T12:34:05.048Z,95177.47
2022-09-01T12:36:36.023Z,95181.94
2022-09-01T12:39:34.030Z,95180.16
2022-09-01T12:42:40.723Z,95175.56
2022-09-01T12:45:11.041Z,95183.00
2022-09-01T12:47:48.191Z,95175.53
2022-09-01T12:50:17.131Z,95172.56
2022-09-01T12:52:54.872Z,95174.19
2022-09-01T12:55:50.539Z,95167.28
2022-09-01T12:58:25.960Z,95177.38
2022-09-01T13:01:01.760Z,95174.78
2022-09-01T13:03:30.601Z,95181.00
2022-09-01T13:06:00.690Z,95174.78
2022-09-01T13:08:36.109Z,95192.75
2022-09-01T13:11:11.188Z,95178.34
2022-09-01T13:13:39.112Z,95192.91
2022-09-01T13:16:16.305Z,95191.91
2022-09-01T13:21:34.869Z,95188.09
2022-09-01T13:24:05.410Z,95190.81
2022-09-01T13:26:33.799Z,95184.16
2022-09-01T13:29:01.689Z,95174.88
2022-09-01T13:31:30.767Z,95181.59
2022-09-01T13:34:22.213Z,95184.63
2022-09-01T13:36:52.462Z,95161.69
2022-09-01T13:39:21.431Z,95166.28
2022-09-01T13:41:49.695Z,95181.72
2022-09-01T13:44:18.809Z,95183.13
2022-09-01T13:50:05.998Z,95164.06
2022-09-01T13:52:25.431Z,95161.72
2022-09-01T13:54:53.079Z,95171.03
2022-09-01T13:57:20.577Z,95177.81
2022-09-01T13:59:48.209Z,95171.44
2022-09-01T14:02:15.729Z,95190.28
2022-09-01T14:04:44.071Z,95188.06
2022-09-01T14:07:11.749Z,95189.38
2022-09-01T14:09:39.319Z,95187.81
2022-09-01T14:12:07.046Z,95178.91
2022-09-01T14:17:23.460Z,95186.72
2022-09-01T14:19:51.450Z,95180.22
2022-09-01T14:22:19.202Z,95186.69
2022-09-01T14:24:46.650Z,95184.16
2022-09-01T14:27:20.410Z,95179.41
2022-09-01T14:29:54.834Z,95189.03
2022-09-01T14:32:27.283Z,95190.13
2022-09-01T14:34:55.629Z,95189.66
2022-09-01T14:37:23.770Z,95193.03
2022-09-01T14:39:53.129Z,95189.38
2022-09-01T14:42:21.109Z,95194.84
2022-09-01T14:44:48.672Z,95185.06
2022-09-01T14:47:18.265Z,95168.94
2022-09-01T14:49:48.049Z,95183.59
2022-09-01T14:52:15.689Z,95186.41
2022-09-01T14:54:43.549Z,95187.28
2022-09-01T15:00:00.436Z,95191.72
2022-09-01T15:02:33.735Z,95196.72
2022-09-01T15:05:02.223Z,95202.78
2022-09-01T15:07:29.716Z,95202.16
2022-09-01T15:09:59.184Z,95200.13
2022-09-01T15:12:31.175Z,95186.28
2022-09-01T15:15:00.769Z,95198.66
2022-09-01T15:17:29.359Z,95220.56
2022-09-01T15:20:16.787Z,95209.56
2022-09-01T15:22:44.468Z,95217.28
2022-09-01T15:25:11.840Z,95209.16
2022-09-01T15:27:41.454Z,95229.34
2022-09-01T15:30:17.201Z,95216.06
2022-09-01T15:32:48.300Z,95226.97
2022-09-01T15:35:16.809Z,95222.34
2022-09-01T15:37:46.610Z,95229.09
2022-09-01T15:40:14.223Z,95227.34
2022-09-01T15:42:42.110Z,95226.38
2022-09-01T15:45:16.839Z,95222.22
2022-09-01T15:47:46.006Z,95224.97
2022-09-01T15:50:21.097Z,95220.81
2022-09-01T15:52:58.869Z,95229.59
2022-09-01T15:55:32.199Z,95226.75
2022-09-01T15:58:00.961Z,95228.81
2022-09-01T16:00:30.242Z,95222.41
2022-09-01T16:03:01.996Z,95234.41
2022-09-01T16:05:32.452Z,95213.88
2022-09-01T16:08:01.693Z,95223.19
2022-09-01T16:10:33.547Z,95226.19
2022-09-01T16:13:04.772Z,95222.66
2022-09-01T16:15:32.800Z,95228.56
2022-09-01T16:18:33.801Z,95226.97
2022-09-01T16:21:10.750Z,95220.88
2022-09-01T16:23:50.261Z,95223.78
2022-09-01T16:26:20.579Z,95231.28
2022-09-01T16:28:52.445Z,95229.84
2022-09-01T16:31:31.459Z,95214.28
2022-09-01T16:34:05.434Z,95228.06
2022-09-01T16:36:53.007Z,95226.09
2022-09-01T16:39:23.540Z,95234.06
2022-09-01T16:42:14.240Z,95239.59
2022-09-01T16:44:47.561Z,95246.59
2022-09-01T16:47:47.490Z,95240.59
2022-09-01T16:50:17.711Z,95234.25
2022-09-01T16:53:17.541Z,95245.81
2022-09-01T16:56:00.450Z,95244.63
2022-09-01T16:58:32.150Z,95250.81
2022-09-01T17:01:10.294Z,95239.59
2022-09-01T17:04:07.510Z,95244.19
2022-09-01T17:07:01.210Z,95241.22
2022-09-01T17:09:32.909Z,95254.41
2022-09-01T17:12:20.130Z,95255.31
2022-09-01T17:14:56.179Z,95257.59
2022-09-01T17:18:06.132Z,95263.34
2022-09-01T17:20:40.441Z,95262.47
2022-09-01T17:23:15.820Z,95245.31
2022-09-01T17:26:02.070Z,95260.91
2022-09-01T17:28:37.780Z,95255.06
2022-09-01T17:31:13.682Z,95265.50
2022-09-01T17:34:02.701Z,95261.06
2022-09-01T17:36:46.792Z,95244.13
2022-09-01T17:39:35.801Z,95264.34
2022-09-01T17:42:14.740Z,95263.78
2022-09-01T17:44:56.514Z,95261.84
2022-09-01T17:47:37.810Z,95272.06
2022-09-01T17:50:58.139Z,95277.69
2022-09-01T17:53:34.943Z,95284.25
2022-09-01T17:56:13.631Z,95286.34
2022-09-01T17:59:10.838Z,95290.22
2022-09-01T18:02:15.250Z,95299.03
2022-09-01T18:05:06.835Z,95298.16
2022-09-01T18:08:03.652Z,95310.22
2022-09-01T18:10:53.828Z,95311.44
2022-09-01T18:13:52.836Z,95304.59
2022-09-01T18:16:32.068Z,95312.75
2022-09-01T18:19:07.161Z,95324.41
2022-09-01T18:21:49.463Z,95315.41
2022-09-01T18:24:22.422Z,95326.19
2022-09-01T18:26:55.070Z,95308.75
2022-09-01T18:29:25.280Z,95324.41
2022-09-01T18:31:55.856Z,95322.00
2022-09-01T18:34:38.440Z,95324.44
2022-09-01T18:37:17.920Z,95331.47
2022-09-01T18:39:51.450Z,95327.22
2022-09-01T18:42:45.230Z,95307.34
2022-09-01T18:45:31.640Z,95327.78
2022-09-01T18:48:53.021Z,95331.03
2022-09-01T18:51:50.651Z,95304.22
2022-09-01T18:54:49.911Z,95323.34
2022-09-01T18:57:21.450Z,95313.41
2022-09-01T19:00:25.633Z,95336.81
2022-09-01T19:03:11.611Z,95341.66
2022-09-01T19:06:11.230Z,95351.06
2022-09-01T19:08:56.581Z,95350.28
2022-09-01T19:12:05.532Z,95356.47
2022-09-01T19:14:50.750Z,95350.81
2022-09-01T19:17:57.430Z,95361.06
2022-09-01T19:20:37.941Z,95364.78
2022-09-01T19:23:12.921Z,95345.13
2022-09-01T19:25:42.580Z,95369.84
2022-09-01T19:28:21.854Z,95363.38
2022-09-01T19:30:55.313Z,95354.72
2022-09-01T19:33:27.931Z,95382.66
2022-09-01T19:36:01.530Z,95368.09
2022-09-01T19:38:32.430Z,95384.22
2022-09-01T19:41:14.273Z,95374.56
2022-09-01T19:43:43.607Z,95374.53
2022-09-01T19:46:15.782Z,95368.88
2022-09-01T19:48:58.571Z,95377.75
2022-09-01T19:51:34.810Z,95378.28
2022-09-01T19:54:16.187Z,95382.84
2022-09-01T19:56:53.039Z,95386.84
2022-09-01T19:59:54.759Z,95387.53
2022-09-01T20:02:34.484Z,95382.63
2022-09-01T20:05:09.482Z,95385.03
2022-09-01T20:07:44.520Z,95385.56
2022-09-01T20:10:27.239Z,95379.88
2022-09-01T20:16:44.789Z,95373.91
2022-09-01T20:19:20.710Z,95380.13
2022-09-01T20:21:49.113Z,95386.53
2022-09-01T20:24:29.211Z,95367.41
2022-09-01T20:27:04.359Z,95382.16
2022-09-01T20:29:47.430Z,95385.66
2022-09-01T20:32:22.299Z,95379.72
2022-09-01T20:34:55.450Z,95382.09
2022-09-01T20:37:31.340Z,95382.31
2022-09-01T20:40:17.826Z,95387.38
2022-09-01T20:42:55.806Z,95384.66
2022-09-01T20:45:27.508Z,95386.72
2022-09-01T20:47:59.009Z,95386.13
2022-09-01T20:50:43.184Z,95382.81
2022-09-01T20:53:23.110Z,95396.75
2022-09-01T20:55:58.360Z,95394.28
2022-09-01T20:59:03.913Z,95396.06
2022-09-01T21:01:39.775Z,95399.78
2022-09-01T21:04:39.398Z,95404.81
2022-09-01T21:07:17.102Z,95384.31
2022-09-01T21:09:58.776Z,95416.38
2022-09-01T21:13:24.761Z,95417.75
2022-09-01T21:16:25.173Z,95416.94
2022-09-01T21:19:13.869Z,95414.78
2022-09-01T21:21:51.581Z,95418.75
2022-09-01T21:24:19.618Z,95416.50
2022-09-01T21:26:49.262Z,95421.19
2022-09-01T21:29:43.891Z,95418.19
2022-09-01T21:32:14.040Z,95412.75
2022-09-01T21:34:41.832Z,95412.47
2022-09-01T21:37:09.701Z,95422.25
2022-09-01T21:39:37.841Z,95420.88
2022-09-01T21:42:08.009Z,95413.38
2022-09-01T21:44:36.579Z,95425.22
2022-09-01T21:47:04.980Z,95418.25
2022-09-01T21:49:33.329Z,95428.97
2022-09-01T21:52:01.125Z,95420.03
2022-09-01T21:54:31.401Z,95432.38
2022-09-01T21:56:58.762Z,95423.47
2022-09-01T21:59:26.589Z,95418.59
2022-09-01T22:01:54.212Z,95419.09
2022-09-01T22:04:23.280Z,95420.19
2022-09-01T22:06:52.369Z,95417.97
2022-09-01T22:09:21.811Z,95411.75
2022-09-01T22:11:53.041Z,95418.41
2022-09-01T22:14:22.313Z,95423.84
2022-09-01T22:16:50.197Z,95421.56
2022-09-01T22:19:18.259Z,95403.28
2022-09-01T22:21:48.282Z,95414.03
2022-09-01T22:24:19.172Z,95415.66
2022-09-01T22:26:48.727Z,95407.13
2022-09-01T22:29:18.580Z,95418.91
2022-09-01T22:31:46.057Z,95407.31
2022-09-01T22:34:13.560Z,95413.97
2022-09-01T22:36:45.909Z,95403.34
2022-09-01T22:39:18.070Z,95426.94
2022-09-01T22:41:46.550Z,95401.44
2022-09-01T22:44:14.009Z,95414.16
2022-09-01T22:46:42.193Z,95419.16
2022-09-01T22:49:11.140Z,95412.69
2022-09-01T22:51:40.919Z,95420.31
2022-09-01T22:54:09.551Z,95401.84
2022-09-01T22:56:39.759Z,95418.13
2022-09-01T22:59:11.559Z,95411.47
2022-09-01T23:01:43.720Z,95403.31
2022-09-01T23:04:14.680Z,95408.16
2022-09-01T23:06:49.950Z,95412.34
2022-09-01T23:09:19.240Z,95418.44
2022-09-01T23:11:48.069Z,95418.66
2022-09-01T23:14:15.671Z,95414.03
2022-09-01T23:16:43.866Z,95413.31
2022-09-01T23:19:12.199Z,95414.28
2022-09-01T23:21:40.172Z,95411.84
2022-09-01T23:24:08.040Z,95410.56
2022-09-01T23:26:36.392Z,95404.41
2022-09-01T23:29:07.510Z,95402.00
2022-09-01T23:31:38.565Z,95406.69
2022-09-01T23:34:08.130Z,95408.31
2022-09-01T23:36:36.360Z,95407.50
2022-09-01T23:39:05.660Z,95395.69
2022-09-01T23:41:35.340Z,95407.00
2022-09-01T23:44:06.151Z,95402.72
2022-09-01T23:46:38.211Z,95400.06
2022-09-01T23:49:06.762Z,95401.34
2022-09-01T23:51:34.600Z,95403.69
2022-09-01T23:54:02.160Z,95393.97
2022-09-01T23:56:30.547Z,95398.25
2022-09-01T23:58:59.140Z,95395.41
